Time;durP1;ratioP1;P1;durP2;ratioP2;P2;SDS_P1;SDS_P2;PMS_P1;PMS_P2;Temp;Humidity;BMP_temperature;BMP_pressure;BME280_temperature;BME280_humidity;BME280_pressure;Samples;Min_cycle;Max_cycle;Signal;HPM_P1;HPM_P2
2023/06/30 00:02:50;;;;;;;22.45;9.88;;;24.90;58.70;;;;;;6258978;28;20140;-72
2023/06/30 00:05:51;;;;;;;23.20;9.57;;;25.00;58.60;;;;;;6259492;28;20554;-73
2023/06/30 00:08:52;;;;;;;21.60;10.30;;;25.00;58.60;;;;;;6258879;28;20450;-72
2023/06/30 00:11:54;;;;;;;19.90;9.35;;;25.00;58.50;;;;;;6244048;28;20055;-72
2023/06/30 00:14:55;;;;;;;23.17;10.43;;;24.90;58.30;;;;;;6258737;28;20033;-72
2023/06/30 00:17:56;;;;;;;22.55;8.77;;;24.90;58.20;;;;;;6243629;28;20029;-74
2023/06/30 00:20:57;;;;;;;24.90;10.00;;;24.90;58.30;;;;;;6243668;28;20338;-72
2023/06/30 00:24:01;;;;;;;21.98;8.93;;;24.90;58.20;;;;;;6258387;28;20490;-73
2023/06/30 00:27:02;;;;;;;24.27;9.77;;;24.90;58.20;;;;;;6241620;28;20396;-72
2023/06/30 00:30:04;;;;;;;27.85;9.85;;;24.90;58.40;;;;;;6258158;28;20052;-72
2023/06/30 00:33:05;;;;;;;28.33;10.70;;;24.90;58.80;;;;;;6240977;28;20207;-73
2023/06/30 00:36:06;;;;;;;21.00;9.73;;;24.90;59.00;;;;;;6258084;28;20044;-72
2023/06/30 00:39:06;;;;;;;28.30;10.30;;;24.80;59.20;;;;;;6272954;28;20106;-72
2023/06/30 00:42:08;;;;;;;18.55;9.32;;;24.90;59.50;;;;;;6243099;28;20120;-73
2023/06/30 00:45:09;;;;;;;23.58;10.02;;;24.80;59.70;;;;;;6243447;28;20021;-73
2023/06/30 00:48:11;;;;;;;26.85;9.70;;;24.80;60.00;;;;;;6243309;28;20459;-72
2023/06/30 00:51:12;;;;;;;20.10;8.80;;;24.70;60.10;;;;;;6258489;28;20120;-72
2023/06/30 00:54:14;;;;;;;21.63;8.90;;;24.70;60.30;;;;;;6241877;28;20434;-72
2023/06/30 00:57:15;;;;;;;20.13;8.75;;;24.70;60.60;;;;;;6243215;28;20037;-71
2023/06/30 01:00:16;;;;;;;18.52;8.73;;;24.70;60.70;;;;;;6258539;28;20140;-73
2023/06/30 01:03:27;;;;;;;20.30;8.40;;;24.70;60.80;;;;;;6257791;28;20022;-72
2023/06/30 01:06:37;;;;;;;21.27;7.95;;;24.70;60.90;;;;;;6257759;28;20517;-72
2023/06/30 01:09:46;;;;;;;17.27;7.80;;;24.70;60.90;;;;;;6242485;28;20034;-74
2023/06/30 01:12:48;;;;;;;17.65;7.53;;;24.70;61.10;;;;;;6240918;28;20033;-73
2023/06/30 01:15:50;;;;;;;15.60;7.65;;;24.70;61.20;;;;;;6242591;28;20025;-73
2023/06/30 01:18:53;;;;;;;18.58;7.60;;;24.70;61.30;;;;;;6240621;28;20065;-73
2023/06/30 01:22:00;;;;;;;17.75;6.60;;;24.60;61.20;;;;;;6243365;28;20039;-72
2023/06/30 01:25:06;;;;;;;17.50;7.80;;;24.60;61.30;;;;;;6245368;28;20112;-73
2023/06/30 01:28:07;;;;;;;14.88;6.43;;;24.60;61.30;;;;;;6257792;28;20037;-72
2023/06/30 01:31:10;;;;;;;18.20;6.65;;;24.60;61.20;;;;;;6242446;28;20045;-73
2023/06/30 01:34:15;;;;;;;15.35;6.93;;;24.60;61.10;;;;;;6257161;28;20043;-73
2023/06/30 01:37:16;;;;;;;16.88;6.10;;;24.60;61.10;;;;;;6276570;28;20101;-72
2023/06/30 01:40:17;;;;;;;17.33;6.90;;;24.50;61.00;;;;;;6239459;28;20042;-73
2023/06/30 01:43:18;;;;;;;20.40;7.20;;;24.40;61.20;;;;;;6239888;28;20064;-72
2023/06/30 01:46:21;;;;;;;14.43;5.47;;;24.30;61.40;;;;;;6240512;28;20034;-73
2023/06/30 01:49:23;;;;;;;14.40;5.93;;;24.30;61.80;;;;;;6240325;28;20105;-73
2023/06/30 01:52:25;;;;;;;14.85;6.82;;;24.20;62.10;;;;;;6239600;28;20137;-73
2023/06/30 01:55:26;;;;;;;13.85;6.15;;;24.20;62.30;;;;;;6239970;28;20017;-74
2023/06/30 01:58:27;;;;;;;16.52;6.88;;;24.20;62.50;;;;;;6256708;28;20029;-73
2023/06/30 02:01:28;;;;;;;24.27;7.45;;;24.30;62.70;;;;;;6239765;28;20025;-72
2023/06/30 02:04:29;;;;;;;18.08;7.47;;;24.20;62.80;;;;;;6239640;28;20505;-72
2023/06/30 02:07:31;;;;;;;24.63;9.35;;;24.20;62.70;;;;;;6240002;28;20048;-72
2023/06/30 02:10:32;;;;;;;16.60;8.02;;;24.20;62.90;;;;;;6239586;28;20112;-72
2023/06/30 02:13:33;;;;;;;17.73;8.77;;;24.20;63.40;;;;;;6256233;28;20033;-72
2023/06/30 02:16:34;;;;;;;22.02;9.10;;;24.10;63.80;;;;;;6241658;28;20037;-73
2023/06/30 02:19:35;;;;;;;30.65;9.82;;;24.00;64.40;;;;;;6241458;28;20048;-73
2023/06/30 02:22:37;;;;;;;25.58;9.10;;;23.80;64.90;;;;;;6223709;28;20083;-73
2023/06/30 02:25:38;;;;;;;20.50;8.73;;;23.70;65.60;;;;;;6256601;28;20146;-71
2023/06/30 02:28:39;;;;;;;18.95;8.65;;;23.70;66.00;;;;;;6241449;28;20485;-72
2023/06/30 02:31:40;;;;;;;25.00;9.82;;;23.60;66.10;;;;;;6241185;28;20493;-71
2023/06/30 02:34:40;;;;;;;30.75;10.32;;;23.50;66.40;;;;;;6255978;28;20037;-73
2023/06/30 02:37:41;;;;;;;22.35;9.50;;;23.40;66.70;;;;;;6253221;28;20048;-72
2023/06/30 02:40:42;;;;;;;23.38;9.15;;;23.40;66.90;;;;;;6244159;28;20120;-73
2023/06/30 02:43:43;;;;;;;26.67;10.05;;;23.40;67.10;;;;;;6256652;28;20037;-72
2023/06/30 02:46:45;;;;;;;21.92;9.38;;;23.40;67.20;;;;;;6239493;28;20048;-72
2023/06/30 02:49:46;;;;;;;20.80;8.90;;;23.40;67.30;;;;;;6255623;28;20124;-73
2023/06/30 02:52:47;;;;;;;20.38;9.20;;;23.50;67.40;;;;;;6259371;28;20029;-72
2023/06/30 02:55:48;;;;;;;19.58;8.60;;;23.50;67.20;;;;;;6260693;28;20627;-72
2023/06/30 02:58:50;;;;;;;20.33;9.07;;;23.60;67.00;;;;;;6260388;28;20366;-72
2023/06/30 03:01:51;;;;;;;18.35;8.63;;;23.70;66.70;;;;;;6243837;28;20103;-72
2023/06/30 03:04:55;;;;;;;19.70;7.90;;;23.70;66.50;;;;;;6260558;28;20029;-72
2023/06/30 03:07:56;;;;;;;16.55;7.07;;;23.80;66.40;;;;;;6243797;28;20040;-72
2023/06/30 03:10:57;;;;;;;15.00;6.88;;;23.80;66.20;;;;;;6227584;28;20123;-73
2023/06/30 03:13:58;;;;;;;20.00;7.57;;;23.80;66.10;;;;;;6243814;28;20060;-72
2023/06/30 03:17:04;;;;;;;18.92;7.30;;;23.80;66.10;;;;;;6236681;28;20029;-72
2023/06/30 03:20:10;;;;;;;16.70;7.00;;;23.80;66.00;;;;;;6236345;28;20080;-73
2023/06/30 03:23:14;;;;;;;19.48;7.40;;;23.80;65.80;;;;;;6236294;28;20076;-72
2023/06/30 03:26:15;;;;;;;16.50;7.97;;;23.80;65.70;;;;;;6235245;28;20041;-75
2023/06/30 03:29:15;;;;;;;17.60;7.70;;;23.70;65.70;;;;;;6219300;28;20382;-72
2023/06/30 03:32:16;;;;;;;22.50;10.00;;;23.70;65.90;;;;;;6242851;28;20038;-72
2023/06/30 03:35:18;;;;;;;25.25;9.60;;;23.80;65.90;;;;;;6243053;28;20144;-73
2023/06/30 03:38:18;;;;;;;22.95;9.45;;;23.70;65.70;;;;;;6259608;28;20503;-72
2023/06/30 03:41:19;;;;;;;18.85;8.55;;;23.80;65.60;;;;;;6270290;28;20036;-74
2023/06/30 03:44:20;;;;;;;25.60;10.05;;;23.70;65.40;;;;;;6244721;28;20350;-72
2023/06/30 03:47:21;;;;;;;23.40;9.68;;;23.70;65.30;;;;;;6260045;28;20059;-73
2023/06/30 03:50:22;;;;;;;19.30;8.85;;;23.70;65.40;;;;;;6244708;28;20116;-73
2023/06/30 03:53:23;;;;;;;30.67;9.65;;;23.70;65.50;;;;;;6244239;28;20056;-72
2023/06/30 03:56:23;;;;;;;28.98;10.07;;;23.70;65.70;;;;;;6259684;28;20563;-73
2023/06/30 03:59:24;;;;;;;24.27;10.93;;;23.80;65.70;;;;;;6243222;28;20029;-73
2023/06/30 04:02:25;;;;;;;25.40;10.32;;;23.80;65.60;;;;;;6243654;28;20033;-72
2023/06/30 04:05:26;;;;;;;30.55;10.40;;;23.70;65.60;;;;;;6242761;28;20034;-73
2023/06/30 04:08:28;;;;;;;25.58;10.95;;;23.70;65.70;;;;;;6244022;28;20378;-73
2023/06/30 04:11:30;;;;;;;26.20;10.88;;;23.70;65.70;;;;;;6243958;28;20037;-72
2023/06/30 04:14:30;;;;;;;31.35;10.82;;;23.70;65.90;;;;;;6259115;28;20037;-73
2023/06/30 04:17:31;;;;;;;34.05;11.60;;;23.60;66.10;;;;;;6259612;28;20063;-71
2023/06/30 04:20:32;;;;;;;27.85;10.40;;;23.70;66.30;;;;;;6242754;28;20017;-73
2023/06/30 04:23:33;;;;;;;22.48;11.07;;;23.70;66.40;;;;;;6243683;28;20064;-74
2023/06/30 04:26:35;;;;;;;25.92;10.82;;;23.70;66.40;;;;;;6243378;28;20025;-74
2023/06/30 04:29:36;;;;;;;24.52;10.50;;;23.70;66.40;;;;;;6244058;28;20044;-73
2023/06/30 04:32:37;;;;;;;29.77;10.65;;;23.80;66.40;;;;;;6241561;28;20033;-73
2023/06/30 04:35:37;;;;;;;23.88;9.70;;;23.80;66.30;;;;;;6243740;28;20101;-73
2023/06/30 04:38:39;;;;;;;27.13;11.38;;;23.80;66.30;;;;;;6258699;28;20159;-72
2023/06/30 04:41:40;;;;;;;25.30;10.20;;;23.80;66.30;;;;;;6241721;28;20030;-73
2023/06/30 04:44:41;;;;;;;25.55;10.07;;;23.80;66.30;;;;;;6243415;28;20021;-72
2023/06/30 04:47:42;;;;;;;23.55;10.52;;;23.90;66.10;;;;;;6241912;28;20431;-73
2023/06/30 04:50:43;;;;;;;20.98;9.68;;;23.90;66.00;;;;;;6243301;28;20037;-73
2023/06/30 04:53:44;;;;;;;20.10;9.88;;;23.90;65.80;;;;;;6240961;28;20041;-71
2023/06/30 04:56:45;;;;;;;17.90;8.25;;;23.90;65.70;;;;;;6258122;28;20106;-73
2023/06/30 04:59:46;;;;;;;23.30;8.73;;;23.90;65.70;;;;;;6257976;28;20160;-73
2023/06/30 05:02:47;;;;;;;19.98;8.57;;;23.90;65.70;;;;;;6257631;28;20493;-73
2023/06/30 05:05:48;;;;;;;18.35;7.97;;;23.90;65.60;;;;;;6258326;28;20029;-72
2023/06/30 05:08:49;;;;;;;17.05;7.57;;;23.90;65.50;;;;;;6241741;28;20520;-73
2023/06/30 05:11:50;;;;;;;17.48;7.38;;;24.00;65.40;;;;;;6242349;28;20062;-72
2023/06/30 05:14:52;;;;;;;17.60;7.47;;;23.90;65.30;;;;;;6240344;28;20739;-72
2023/06/30 05:17:53;;;;;;;17.40;6.97;;;24.00;65.20;;;;;;6242749;28;20108;-73
2023/06/30 05:20:55;;;;;;;14.55;7.30;;;24.00;65.10;;;;;;6257753;28;20037;-74
2023/06/30 05:23:55;;;;;;;15.65;7.07;;;24.00;65.00;;;;;;6259019;28;20465;-74
2023/06/30 05:26:57;;;;;;;15.18;6.43;;;24.00;64.80;;;;;;6260219;28;20110;-73
2023/06/30 05:29:58;;;;;;;18.45;6.72;;;23.90;65.00;;;;;;6242806;28;20033;-73
2023/06/30 05:32:59;;;;;;;17.02;7.15;;;23.90;65.00;;;;;;6241778;28;20041;-73
2023/06/30 05:35:59;;;;;;;20.33;8.10;;;23.90;64.90;;;;;;6241015;28;20112;-73
2023/06/30 05:39:00;;;;;;;13.80;6.50;;;23.90;64.90;;;;;;6240139;28;20030;-72
2023/06/30 05:42:01;;;;;;;20.40;8.10;;;23.90;65.00;;;;;;6241956;28;20121;-72
2023/06/30 05:45:03;;;;;;;19.23;7.63;;;23.90;65.00;;;;;;6240392;28;20419;-73
2023/06/30 05:48:03;;;;;;;15.32;7.75;;;23.90;65.00;;;;;;6240659;28;20123;-73
2023/06/30 05:51:04;;;;;;;19.25;7.22;;;23.90;65.00;;;;;;6239865;28;20037;-72
2023/06/30 05:54:05;;;;;;;14.43;6.90;;;23.90;65.10;;;;;;6258500;28;20128;-72
2023/06/30 05:57:06;;;;;;;21.42;8.93;;;23.90;65.00;;;;;;6233237;28;20139;-73
2023/06/30 06:00:07;;;;;;;23.92;7.68;;;23.90;65.00;;;;;;6241672;28;20545;-73
2023/06/30 06:03:16;;;;;;;20.45;9.00;;;23.90;64.90;;;;;;6240624;28;20061;-73
2023/06/30 06:06:17;;;;;;;22.98;9.70;;;23.90;64.80;;;;;;6255895;28;20061;-73
2023/06/30 06:09:18;;;;;;;21.70;9.10;;;23.90;65.00;;;;;;6256265;28;20029;-73
2023/06/30 06:12:19;;;;;;;20.45;9.23;;;23.90;65.20;;;;;;6255838;28;20124;-72
2023/06/30 06:15:20;;;;;;;20.85;8.80;;;23.80;65.30;;;;;;6241296;28;20033;-72
2023/06/30 06:18:21;;;;;;;33.25;10.38;;;23.90;65.60;;;;;;6240477;28;20112;-73
2023/06/30 06:21:27;;;;;;;19.73;8.57;;;23.80;65.60;;;;;;6240677;28;20043;-72
2023/06/30 06:24:27;;;;;;;22.42;9.38;;;23.70;65.80;;;;;;6239339;28;20095;-72
2023/06/30 06:27:34;;;;;;;22.70;9.07;;;23.70;66.10;;;;;;6240611;28;20072;-72
2023/06/30 06:30:35;;;;;;;21.42;9.52;;;23.60;66.20;;;;;;6239153;28;20036;-73
2023/06/30 06:33:36;;;;;;;20.13;9.30;;;23.60;66.40;;;;;;6255025;28;20502;-74
2023/06/30 06:36:37;;;;;;;19.67;8.68;;;23.70;66.50;;;;;;6258962;28;20519;-72
2023/06/30 06:39:38;;;;;;;12.18;5.97;;;23.70;66.40;;;;;;6251474;28;20037;-72
2023/06/30 06:42:39;;;;;;;14.30;5.00;;;23.70;65.90;;;;;;6255409;28;20103;-73
2023/06/30 06:45:43;;;;;;;11.02;3.83;;;23.60;65.80;;;;;;6255300;28;20407;-73
2023/06/30 06:48:44;;;;;;;9.65;3.30;;;23.50;65.90;;;;;;6240446;28;20108;-72
2023/06/30 06:51:44;;;;;;;7.40;2.75;;;23.40;65.80;;;;;;6240564;28;20108;-73
2023/06/30 06:54:45;;;;;;;5.03;2.03;;;23.30;65.90;;;;;;6240637;28;20355;-74
2023/06/30 06:57:48;;;;;;;4.90;1.40;;;23.30;65.80;;;;;;6256140;28;20041;-74
2023/06/30 07:00:51;;;;;;;5.07;1.33;;;23.10;65.60;;;;;;6240747;28;20164;-72
2023/06/30 07:03:51;;;;;;;2.08;1.00;;;22.90;65.70;;;;;;6240697;28;20025;-74
2023/06/30 07:06:52;;;;;;;4.78;1.50;;;22.60;66.00;;;;;;6239504;28;20507;-72
2023/06/30 07:09:53;;;;;;;4.00;1.65;;;22.40;66.80;;;;;;6256395;28;20378;-72
2023/06/30 07:12:54;;;;;;;4.75;1.50;;;22.30;67.10;;;;;;6240998;28;20025;-73
2023/06/30 07:15:55;;;;;;;7.45;1.77;;;22.30;67.40;;;;;;6255706;28;20625;-74
2023/06/30 07:18:56;;;;;;;9.63;1.88;;;22.20;67.70;;;;;;6241318;28;20360;-73
2023/06/30 07:21:57;;;;;;;3.95;1.35;;;22.10;68.00;;;;;;6240743;28;20114;-73
2023/06/30 07:24:58;;;;;;;3.95;1.15;;;22.00;68.50;;;;;;6240376;28;20072;-73
2023/06/30 07:27:59;;;;;;;5.20;1.75;;;22.00;68.80;;;;;;6255891;28;20091;-71
2023/06/30 07:31:00;;;;;;;11.20;1.60;;;22.00;68.80;;;;;;6255389;28;20034;-72
2023/06/30 07:34:01;;;;;;;6.25;1.70;;;21.90;68.80;;;;;;6240095;28;20041;-74
2023/06/30 07:37:02;;;;;;;4.95;2.08;;;21.90;68.80;;;;;;6248223;28;20029;-74
2023/06/30 07:40:03;;;;;;;5.45;2.03;;;21.90;68.90;;;;;;6253607;28;20128;-73
2023/06/30 07:43:04;;;;;;;10.57;2.10;;;22.00;68.70;;;;;;6243879;28;20026;-73
2023/06/30 07:46:05;;;;;;;3.83;2.08;;;21.90;68.30;;;;;;6227354;28;20025;-73
2023/06/30 07:49:07;;;;;;;4.28;2.17;;;21.80;67.90;;;;;;6245488;28;20061;-73
2023/06/30 07:52:08;;;;;;;6.28;2.42;;;21.80;67.60;;;;;;6246092;28;20037;-72
2023/06/30 07:55:12;;;;;;;7.63;2.95;;;21.90;67.30;;;;;;6245672;28;20100;-73
2023/06/30 07:58:13;;;;;;;7.60;2.60;;;22.00;66.90;;;;;;6245110;28;20497;-73
2023/06/30 08:01:14;;;;;;;8.02;3.20;;;22.10;66.50;;;;;;6244466;28;20037;-72
2023/06/30 08:04:14;;;;;;;8.60;2.85;;;22.10;66.10;;;;;;6260272;28;20033;-73
2023/06/30 08:07:16;;;;;;;8.38;3.38;;;22.20;66.10;;;;;;6244117;28;20033;-73
2023/06/30 08:10:17;;;;;;;5.85;3.20;;;22.30;66.00;;;;;;6258950;28;20095;-74
2023/06/30 08:13:19;;;;;;;7.68;3.70;;;22.40;65.60;;;;;;6243502;28;20061;-74
2023/06/30 08:16:19;;;;;;;8.68;3.10;;;22.50;65.40;;;;;;6242153;28;20036;-73
2023/06/30 08:19:21;;;;;;;8.00;3.30;;;22.60;65.80;;;;;;6259093;28;20071;-74
2023/06/30 08:22:22;;;;;;;9.35;3.08;;;22.70;64.20;;;;;;6244262;28;20029;-73
2023/06/30 08:25:24;;;;;;;7.28;3.20;;;22.70;64.00;;;;;;6244002;28;20038;-73
2023/06/30 08:28:26;;;;;;;6.65;2.75;;;22.70;63.70;;;;;;6242172;28;20666;-75
2023/06/30 08:31:28;;;;;;;7.82;3.38;;;22.80;63.20;;;;;;6258694;28;20037;-75
2023/06/30 08:34:29;;;;;;;8.50;3.47;;;22.70;63.10;;;;;;6259111;28;20037;-73
2023/06/30 08:37:31;;;;;;;6.72;3.30;;;22.80;63.00;;;;;;6253548;28;20354;-75
2023/06/30 08:40:32;;;;;;;6.50;2.78;;;22.80;62.80;;;;;;6248163;28;20033;-73
2023/06/30 08:43:34;;;;;;;9.35;3.40;;;22.80;62.80;;;;;;6241891;28;20099;-75
2023/06/30 08:46:35;;;;;;;8.93;3.55;;;22.80;63.10;;;;;;6243818;28;20030;-73
2023/06/30 08:49:36;;;;;;;9.10;3.28;;;22.80;63.30;;;;;;6243099;28;20021;-75
2023/06/30 08:52:37;;;;;;;8.93;3.20;;;22.80;63.40;;;;;;6242874;28;20148;-73
2023/06/30 08:55:39;;;;;;;7.47;3.08;;;22.80;63.50;;;;;;6241332;28;20025;-73
2023/06/30 08:58:41;;;;;;;9.40;3.55;;;22.80;63.20;;;;;;6242888;28;20029;-72
2023/06/30 09:01:45;;;;;;;7.90;3.53;;;23.00;63.20;;;;;;6257466;28;20037;-74
2023/06/30 09:04:46;;;;;;;9.18;3.17;;;23.10;63.10;;;;;;6242618;28;20036;-74
2023/06/30 09:07:57;;;;;;;7.38;3.35;;;23.20;62.80;;;;;;6257681;28;20056;-73
2023/06/30 09:11:04;;;;;;;8.13;3.20;;;23.30;62.10;;;;;;6242872;28;20041;-73
2023/06/30 09:14:08;;;;;;;6.10;3.03;;;23.40;61.70;;;;;;6242064;28;20060;-72
2023/06/30 09:17:09;;;;;;;10.45;3.58;;;23.50;61.50;;;;;;6257449;28;20041;-73
2023/06/30 09:20:12;;;;;;;12.27;4.72;;;23.60;61.20;;;;;;6240778;28;20513;-75
2023/06/30 09:23:14;;;;;;;11.85;3.88;;;23.60;60.80;;;;;;6240408;28;20049;-74
2023/06/30 09:26:18;;;;;;;9.10;3.75;;;23.60;60.60;;;;;;6241796;28;20120;-73
2023/06/30 09:29:23;;;;;;;9.13;4.00;;;23.70;60.70;;;;;;6232994;28;20034;-74
2023/06/30 09:32:32;;;;;;;10.35;3.83;;;23.80;60.10;;;;;;6217682;28;20045;-73
2023/06/30 09:35:39;;;;;;;7.97;3.55;;;23.90;60.00;;;;;;6218383;28;20497;-72
2023/06/30 09:38:40;;;;;;;8.45;3.88;;;24.10;59.60;;;;;;6257786;28;20488;-74
2023/06/30 09:41:43;;;;;;;9.10;3.92;;;24.30;59.10;;;;;;6266935;28;20100;-74
2023/06/30 09:44:44;;;;;;;9.88;3.65;;;24.30;58.80;;;;;;6267321;28;20029;-73
2023/06/30 09:47:52;;;;;;;12.55;4.45;;;24.30;58.50;;;;;;6265707;28;20085;-73
2023/06/30 09:50:53;;;;;;;10.25;3.92;;;24.30;58.50;;;;;;6232795;28;20180;-72
2023/06/30 09:53:54;;;;;;;5.75;2.92;;;24.40;58.70;;;;;;6217676;28;20432;-73
2023/06/30 09:56:59;;;;;;;11.30;3.58;;;24.30;57.90;;;;;;6215547;28;20099;-73
2023/06/30 10:00:00;;;;;;;9.38;3.88;;;24.20;57.70;;;;;;6216582;28;20149;-73
2023/06/30 10:03:08;;;;;;;8.85;3.65;;;24.20;57.90;;;;;;6215553;28;20088;-74
2023/06/30 10:06:09;;;;;;;7.85;3.85;;;24.20;58.10;;;;;;6241088;28;20033;-74
2023/06/30 10:09:10;;;;;;;7.85;3.55;;;24.30;58.70;;;;;;6239374;28;20139;-73
2023/06/30 10:12:14;;;;;;;13.48;3.90;;;24.40;58.00;;;;;;6240998;28;20091;-75
2023/06/30 10:15:15;;;;;;;7.60;3.67;;;24.40;57.80;;;;;;6241240;28;20080;-73
2023/06/30 10:18:17;;;;;;;10.93;4.32;;;24.50;57.70;;;;;;6241986;28;20026;-74
2023/06/30 10:21:18;;;;;;;8.88;4.22;;;24.60;57.50;;;;;;6239862;28;20041;-73
2023/06/30 10:24:26;;;;;;;11.70;4.20;;;24.70;57.20;;;;;;6239074;28;20029;-74
2023/06/30 10:27:28;;;;;;;9.02;4.18;;;24.70;57.20;;;;;;6263221;28;20037;-74
2023/06/30 10:30:29;;;;;;;11.57;4.18;;;24.70;57.00;;;;;;6240358;28;20139;-73
2023/06/30 10:33:30;;;;;;;7.72;3.80;;;24.60;56.70;;;;;;6240211;28;20051;-72
2023/06/30 10:36:32;;;;;;;6.90;3.55;;;24.70;56.80;;;;;;6241682;28;20030;-73
2023/06/30 10:39:33;;;;;;;14.52;3.58;;;24.50;56.80;;;;;;6268074;28;20107;-74
2023/06/30 10:42:37;;;;;;;8.80;4.20;;;24.50;56.80;;;;;;6240164;28;20053;-72
2023/06/30 10:46:14;;;;;;;8.48;3.30;;;24.50;56.80;;;;;;6239300;28;20021;-74
2023/06/30 10:49:25;;;;;;;10.82;3.90;;;24.50;56.70;;;;;;6188547;28;20044;-74
2023/06/30 10:52:31;;;;;;;12.15;3.83;;;24.60;56.50;;;;;;6171624;28;20041;-73
2023/06/30 10:55:32;;;;;;;7.80;3.33;;;24.60;56.40;;;;;;6171716;28;20557;-73
2023/06/30 10:58:40;;;;;;;9.05;3.22;;;24.60;56.30;;;;;;6187901;28;20521;-74
2023/06/30 11:02:13;;;;;;;7.35;3.30;;;24.60;56.40;;;;;;6171840;28;20818;-73
2023/06/30 11:05:20;;;;;;;7.03;3.13;;;24.60;56.60;;;;;;6188245;28;20034;-72
2023/06/30 11:08:22;;;;;;;8.57;3.80;;;24.60;56.50;;;;;;6188183;28;20558;-72
2023/06/30 11:11:23;;;;;;;6.68;3.55;;;24.70;56.50;;;;;;6172519;28;20116;-75
2023/06/30 11:14:34;;;;;;;7.10;3.72;;;24.80;56.50;;;;;;6177047;28;20062;-74
2023/06/30 11:17:54;;;;;;;8.57;4.05;;;24.90;56.50;;;;;;6193085;28;20050;-74
2023/06/30 11:21:01;;;;;;;8.73;3.97;;;24.90;56.50;;;;;;6177036;28;20026;-74
2023/06/30 11:24:14;;;;;;;7.40;3.83;;;24.90;56.70;;;;;;6240348;28;20037;-75
2023/06/30 11:27:15;;;;;;;11.68;4.43;;;24.70;57.30;;;;;;6248597;28;20156;-75
2023/06/30 11:30:18;;;;;;;12.70;5.30;;;24.50;57.60;;;;;;6262110;28;20385;-75
2023/06/30 11:33:19;;;;;;;14.52;5.68;;;24.30;57.90;;;;;;6261725;28;20091;-74
2023/06/30 11:36:20;;;;;;;14.18;5.78;;;24.20;58.20;;;;;;6263067;28;20037;-75
2023/06/30 11:39:21;;;;;;;11.48;5.15;;;24.30;58.20;;;;;;6269407;28;20032;-75
2023/06/30 11:42:23;;;;;;;13.18;5.57;;;24.30;58.00;;;;;;6251256;28;20163;-76
2023/06/30 11:45:27;;;;;;;13.25;5.70;;;24.30;58.00;;;;;;6260211;28;20531;-75
2023/06/30 11:48:36;;;;;;;11.00;5.30;;;24.30;58.00;;;;;;6246228;28;20033;-75
2023/06/30 11:51:37;;;;;;;13.35;5.78;;;24.20;58.00;;;;;;6260511;28;20034;-75
2023/06/30 11:54:39;;;;;;;15.77;6.65;;;24.20;58.00;;;;;;6244910;28;20083;-75
2023/06/30 11:57:47;;;;;;;16.80;6.05;;;24.10;58.00;;;;;;6245157;28;20045;-78
2023/06/30 12:00:48;;;;;;;;;;;24.20;57.90;;;;;;6244879;28;20033;-74
2023/06/30 12:04:21;;;;;;;15.82;5.97;;;24.40;57.80;;;;;;6246368;28;19967;-76
2023/06/30 12:07:22;;;;;;;15.85;6.55;;;24.40;57.80;;;;;;6193222;28;20182;-76
2023/06/30 12:10:39;;;;;;;16.65;6.05;;;24.40;57.60;;;;;;6178114;28;20050;-77
2023/06/30 12:13:41;;;;;;;16.85;5.75;;;24.30;57.60;;;;;;6194608;28;20034;-76
2023/06/30 12:16:53;;;;;;;14.13;5.38;;;24.20;57.70;;;;;;6194290;28;20046;-78
2023/06/30 12:19:54;;;;;;;14.50;5.93;;;24.00;58.10;;;;;;6194333;28;20047;-76
2023/06/30 12:22:57;;;;;;;10.93;5.10;;;23.90;58.30;;;;;;6192585;28;20038;-77
2023/06/30 12:25:58;;;;;;;14.88;6.50;;;23.80;58.40;;;;;;6177258;28;20042;-77
2023/06/30 12:29:05;;;;;;;14.45;6.18;;;23.80;58.50;;;;;;6185463;28;20631;-78
2023/06/30 12:32:13;;;;;;;13.67;6.33;;;23.80;59.20;;;;;;6168917;28;20034;-77
2023/06/30 12:35:14;;;;;;;17.80;6.35;;;23.80;58.60;;;;;;6169791;28;20423;-75
2023/06/30 12:38:17;;;;;;;15.20;6.65;;;23.80;58.80;;;;;;6200414;28;20080;-75
2023/06/30 12:41:19;;;;;;;17.00;6.40;;;23.70;58.60;;;;;;6179003;28;20478;-77
2023/06/30 12:44:21;;;;;;;13.35;6.30;;;23.60;58.70;;;;;;6269538;28;20049;-75
2023/06/30 12:47:22;;;;;;;14.75;6.50;;;23.50;59.00;;;;;;6254449;28;20060;-77
2023/06/30 12:50:23;;;;;;;14.73;5.82;;;23.50;59.20;;;;;;6261585;28;20037;-76
2023/06/30 12:53:24;;;;;;;15.05;6.05;;;23.40;59.40;;;;;;6245569;28;20033;-77
2023/06/30 12:56:25;;;;;;;13.52;5.22;;;23.40;60.20;;;;;;6245071;28;20122;-77
2023/06/30 12:59:26;;;;;;;9.57;5.35;;;23.50;59.50;;;;;;6245141;28;20144;-77
2023/06/30 13:02:27;;;;;;;13.50;5.35;;;23.50;59.30;;;;;;6243875;28;20144;-77
2023/06/30 13:05:28;;;;;;;10.65;4.50;;;23.40;59.10;;;;;;6242968;28;20038;-79
2023/06/30 13:08:29;;;;;;;8.57;3.20;;;23.30;59.10;;;;;;6242994;28;20041;-76
2023/06/30 13:11:30;;;;;;;6.40;2.75;;;23.00;59.20;;;;;;6243976;28;20040;-75
2023/06/30 13:14:31;;;;;;;4.25;2.10;;;22.50;59.90;;;;;;6241782;28;20037;-76
2023/06/30 13:17:33;;;;;;;5.20;1.98;;;21.90;59.50;;;;;;6242705;28;20026;-77
2023/06/30 13:20:35;;;;;;;5.78;2.15;;;21.40;60.40;;;;;;6244517;28;20044;-76
2023/06/30 13:23:36;;;;;;;4.70;2.80;;;21.00;62.10;;;;;;6243599;28;20030;-78
2023/06/30 13:26:37;;;;;;;4.80;2.45;;;20.80;64.30;;;;;;6246079;28;20061;-76
2023/06/30 13:29:49;;;;;;;4.20;2.50;;;20.70;65.60;;;;;;6243536;28;20433;-77
2023/06/30 13:32:50;;;;;;;5.03;2.95;;;20.70;66.20;;;;;;6243818;28;20041;-76
2023/06/30 13:35:51;;;;;;;5.28;2.60;;;20.70;66.30;;;;;;6244263;28;20122;-78
2023/06/30 13:38:52;;;;;;;5.38;2.50;;;20.80;65.90;;;;;;6258968;28;20040;-77
2023/06/30 13:41:52;;;;;;;5.57;2.70;;;21.00;65.70;;;;;;6259841;28;20053;-76
2023/06/30 13:44:54;;;;;;;6.43;2.67;;;21.30;65.30;;;;;;6242613;28;20049;-77
2023/06/30 13:47:57;;;;;;;7.03;3.17;;;21.50;64.90;;;;;;6244148;28;20103;-77
2023/06/30 13:50:58;;;;;;;4.22;2.15;;;21.60;64.20;;;;;;6219300;28;20033;-78
2023/06/30 13:53:58;;;;;;;4.90;2.33;;;21.90;63.90;;;;;;6234744;28;20497;-77
2023/06/30 13:56:59;;;;;;;5.57;2.00;;;21.90;63.30;;;;;;6217759;28;20137;-77
2023/06/30 14:00:01;;;;;;;4.28;2.22;;;22.00;62.80;;;;;;6217347;28;20137;-78
2023/06/30 14:03:06;;;;;;;3.13;1.90;;;22.10;62.60;;;;;;6219199;28;20049;-78
2023/06/30 14:06:06;;;;;;;6.53;2.30;;;22.20;62.30;;;;;;6240489;28;20128;-78
2023/06/30 14:09:09;;;;;;;2.92;1.77;;;22.30;61.80;;;;;;6241124;28;20786;-76
2023/06/30 14:12:10;;;;;;;6.65;2.40;;;22.40;61.50;;;;;;6241597;28;20083;-76
2023/06/30 14:15:12;;;;;;;4.95;2.25;;;22.40;60.70;;;;;;6240948;28;20392;-77
2023/06/30 14:18:12;;;;;;;4.47;2.10;;;22.50;60.10;;;;;;6242333;28;20091;-76
2023/06/30 14:21:14;;;;;;;4.20;2.10;;;22.50;59.70;;;;;;6242437;28;20482;-79
2023/06/30 14:24:15;;;;;;;4.93;2.22;;;22.60;59.50;;;;;;6242218;28;20033;-77
2023/06/30 14:27:16;;;;;;;5.22;2.30;;;22.70;59.30;;;;;;6260323;28;20113;-77
2023/06/30 14:30:17;;;;;;;3.38;2.20;;;22.70;58.90;;;;;;6242751;28;20055;-76
2023/06/30 14:33:19;;;;;;;2.13;1.70;;;22.80;58.50;;;;;;6241022;28;20060;-76
2023/06/30 14:36:30;;;;;;;2.60;1.92;;;22.80;58.10;;;;;;6243939;28;20037;-76
2023/06/30 14:39:31;;;;;;;3.00;1.88;;;22.90;57.90;;;;;;6271989;28;20026;-77
2023/06/30 14:42:32;;;;;;;3.72;2.33;;;23.00;57.70;;;;;;6243241;28;20037;-75
2023/06/30 14:45:34;;;;;;;4.35;1.83;;;23.00;57.40;;;;;;6242404;28;20438;-77
2023/06/30 14:48:35;;;;;;;3.97;1.90;;;23.10;57.20;;;;;;6230662;28;20091;-77
2023/06/30 14:51:37;;;;;;;3.30;1.77;;;23.20;56.90;;;;;;6246646;28;20029;-77
2023/06/30 14:54:39;;;;;;;4.82;1.98;;;23.30;56.60;;;;;;6245984;28;20037;-77
2023/06/30 14:57:41;;;;;;;4.53;2.08;;;23.30;56.50;;;;;;6246648;28;20486;-76
2023/06/30 15:00:42;;;;;;;5.90;3.03;;;23.40;56.30;;;;;;6252008;28;20107;-78
2023/06/30 15:03:43;;;;;;;3.97;2.30;;;23.40;56.50;;;;;;6261901;28;20033;-76
2023/06/30 15:06:43;;;;;;;9.07;3.53;;;23.40;56.60;;;;;;6261624;28;20037;-75
2023/06/30 15:09:44;;;;;;;8.57;2.80;;;23.50;56.60;;;;;;6245435;28;20068;-75
2023/06/30 15:12:46;;;;;;;9.05;3.33;;;23.70;56.80;;;;;;6247644;28;20033;-76
2023/06/30 15:15:47;;;;;;;9.30;4.38;;;23.80;56.90;;;;;;6245928;28;20036;-76
2023/06/30 15:18:48;;;;;;;8.55;3.88;;;24.00;57.00;;;;;;6260871;28;20042;-77
2023/06/30 15:21:50;;;;;;;9.68;4.05;;;24.10;57.20;;;;;;6244137;28;20029;-76
2023/06/30 15:24:51;;;;;;;7.85;3.80;;;24.20;57.40;;;;;;6244898;28;20533;-77
2023/06/30 15:27:53;;;;;;;7.28;3.67;;;24.30;57.50;;;;;;6246950;28;20044;-77
2023/06/30 15:30:53;;;;;;;10.23;3.45;;;24.40;57.60;;;;;;6245934;28;20454;-75
2023/06/30 15:33:55;;;;;;;9.48;3.75;;;24.40;57.60;;;;;;6244913;28;20060;-76
2023/06/30 15:36:56;;;;;;;8.18;4.45;;;24.40;57.90;;;;;;6248935;28;20396;-77
2023/06/30 15:39:57;;;;;;;7.38;3.40;;;24.30;58.00;;;;;;6270174;28;20070;-78
2023/06/30 15:42:58;;;;;;;17.80;3.55;;;24.30;58.30;;;;;;6248344;28;20170;-75